ADDS METAR Data INFO
IDs: Format: Raw Decoded Include TAF

Data at: 1151 UTC 23 Jun 2018

KOSU 231123Z 20009KT 8SM SCT011 BKN100 20/18 A2974 RMK AO2 T02000183
KOSU 231053Z COR 21010KT 8SM BKN012 BKN100 20/18 A2973 RMK AO2 SLP059 T02000183
KOSU 230953Z AUTO 21008KT 10SM BKN013 OVC120 20/18 A2972 RMK AO2 SLP056 T02000183
KOSU 230946Z AUTO 20010KT 10SM BKN013 BKN031 OVC120 20/18 A2971 RMK AO2 T02000183
KOSU 230916Z AUTO 20007KT 10SM BKN031 20/18 A2970 RMK AO2 T02000183
KOSU 230901Z AUTO 19007KT 10SM SCT011 OVC029 20/18 A2971 RMK AO2 T02000183
KOSU 230853Z AUTO 18008KT 10SM BKN010 BKN016 OVC027 20/18 A2970 RMK AO2 SLP051 T02000183 53003
KOSU 230816Z AUTO 18008KT 10SM OVC011 20/18 A2970 RMK AO2 T02000183
KOSU 230753Z AUTO 18006KT 10SM OVC009 20/18 A2969 RMK AO2 CIG 007V012 SLP046 T02000183
KOSU 230750Z AUTO 19007KT 10SM OVC009 20/18 A2969 RMK AO2 CIG 007V013
KOSU 230732Z AUTO 18007KT 10SM BKN010 20/18 A2970 RMK AO2 CIG 008V014 T02000183
KOSU 230653Z AUTO 19008KT 10SM SCT015 BKN110 20/18 A2969 RMK AO2 SLP048 T02000183
KOSU 230553Z AUTO 19009KT 10SM BKN032 BKN120 20/18 A2970 RMK AO2 SLP051 60000 T02000178 10261 20200 58001
KOSU 230508Z AUTO 19009KT 10SM FEW022 FEW026 BKN032 21/18 A2971 RMK AO2 T02060178
KOSU 230453Z AUTO 18009KT 10SM BKN029 21/18 A2971 RMK AO2 SLP053 T02060183 402890206
KOSU 230353Z 17007G15KT 10SM SCT120 21/18 A2970 RMK AO2 SLP052 T02110183
KOSU 230253Z 14010KT 10SM SCT012 BKN045 OVC120 22/20 A2971 RMK AO2 RAE08 SLP052 P0000 60000 T02220200 53004
KOSU 230153Z 10009KT 10SM -RA BKN048 BKN060 22/20 A2970 RMK AO2 RAB28 SLP050 P0000 T02220200
KOSU 230053Z 07006KT 10SM FEW060 23/19 A2969 RMK AO2 SLP047 T02280194
KOSU 222353Z 00000KT 10SM BKN110 26/18 A2969 RMK AO2 LTG DSNT NE SLP048 60000 T02610178 10289 20256 53004
KOSU 222253Z 23006KT 10SM CLR 27/18 A2969 RMK AO2 LTG DSNT NE AND E SLP045 T02670183
KOSU 222153Z 24013G19KT 10SM SCT043 SCT055 27/19 A2967 RMK AO2 LTG DSNT N SLP041 T02720189
KOSU 222053Z 22010KT 10SM FEW075 SCT090 28/19 A2968 RMK AO2 LTG DSNT N AND E SLP043 60000 T02780189 56008
KOSU 221953Z 22009G15KT 10SM FEW046 FEW060 28/18 A2969 RMK AO2 LTG DSNT W AND NW SLP045 T02830183
KOSU 221853Z 19011KT 10SM FEW042 SCT050 SCT100 28/19 A2969 RMK AO2 LTG DSNT E RAE01 TSE53 SLP047 TS DSNT NE MOV E P0000 T02780189
KOSU 221753Z COR 22011KT 10SM -TSRA FEW028 SCT036 BKN060 27/21 A2971 RMK AO2 LTG DSNT NE AND E TS DSNT NE MOV E SLP052 P0000 60026 T02720211 10272 20211 58011
KOSU 221653Z 18004KT 9SM -TSRA FEW022 BKN055 OVC100 23/21 A2972 RMK AO2 LTG DSNT NW-E RAB33 TSB26 SLP058 TS N MOV E P0007 T02330211
KOSU 221634Z 25011G19KT 9SM -TSRA FEW012 SCT020 BKN032 22/19 A2972 RMK AO2 LTG DSNT N AND NE RAB33 TSB26 TS N MOV E P0005 T02220194
KOSU 221626Z 23007KT 10SM TS FEW012 BKN020 BKN030 24/22 A2972 RMK AO2 LTG DSNT NE AND NW TSB26 TS N MOV E T02390217
KOSU 221553Z 11003KT 9SM FEW013 SCT022 BKN035 23/22 A2973 RMK AO2 RAB08E38 SLP062 P0013 T02280217
KOSU 221534Z 12004KT 3SM -RA BR FEW010 BKN021 OVC055 23/22 A2973 RMK AO2 RAB08 P0013 T02280217
KOSU 221530Z 11005KT 1 1/4SM RA BR FEW010 BKN035 OVC055 23/22 A2973 RMK AO2 RAB08 P0013 T02280217
KOSU 221518Z 13006KT 1 3/4SM +RA BR SCT012 BKN021 OVC075 23/22 A2974 RMK AO2 RAB08 P0005 T02280217
KOSU 221512Z 11006KT 4SM RA BR SCT013 BKN021 OVC055 23/22 A2974 RMK AO2 RAB08 P0001 T02280217
KOSU 221453Z 11005KT 9SM FEW007 BKN013 OVC024 23/22 A2974 RMK AO2 RAB07E40 SLP065 P0006 60006 T02280217 50000
KOSU 221353Z 12005KT 9SM OVC005 22/21 A2975 RMK AO2 SLP068 T02220211
KOSU 221301Z 12007KT 9SM OVC004 22/21 A2975 RMK AO2 T02170211
KOSU 221253Z COR 11007KT 9SM OVC004 22/21 A2975 RMK AO2 SLP068 T02170211
KOSU 221153Z 12005KT 5SM BR OVC004 21/21 A2974 RMK AO2 CIG 003V007 SLP066 60002 70210 T02110206 10211 20206 50002
KOSU 221053Z 13006KT 4SM BR OVC004 21/21 A2974 RMK AO2 SLP066 T02060206
KOSU 221050Z 13005KT 4SM BR OVC004 21/21 A2974 RMK AO2
KOSU 220953Z AUTO 10005KT 8SM OVC006 21/20 A2974 RMK AO2 SLP064 T02060200
KOSU 220853Z AUTO 08005KT 7SM BKN007 OVC027 21/20 A2973 RMK AO2 RAB16E44 CIG 004V009 SLP062 P0002 60002 T02060200 55001
KOSU 220803Z AUTO 08007KT 6SM BR BKN008 BKN012 OVC020 21/20 A2973 RMK AO2 CIG 006V010 T02060200
KOSU 220753Z AUTO 08007KT 5SM BR BKN010 OVC020 21/20 A2973 RMK AO2 RAB13E22 CIG 007V013 SLP060 P0000 T02060200
KOSU 220735Z AUTO 07005KT 6SM BR BKN009 OVC020 21/20 A2973 RMK AO2 RAB13E22 CIG 007V013 P0000 T02060200
KOSU 220727Z AUTO 08006KT 7SM BKN010 OVC020 21/20 A2973 RMK AO2 RAB13E22 CIG 007V012 P0000 T02060200
KOSU 220718Z AUTO 05006KT 6SM -RA BR SCT010 BKN020 OVC045 21/20 A2973 RMK AO2 RAB13 P0000 T02060200
KOSU 220653Z AUTO 06006KT 6SM BR FEW010 SCT018 OVC045 21/20 A2973 RMK AO2 SLP062 T02060200
KOSU 220649Z AUTO 06005KT 5SM BR SCT010 BKN018 OVC045 21/20 A2973 RMK AO2
KOSU 220553Z AUTO 08006KT 6SM BR BKN010 OVC015 21/20 A2976 RMK AO2 SLP070 60008 T02060200 10206 20200 58007
KOSU 220539Z AUTO 07006KT 7SM OVC013 21/20 A2976 RMK AO2 T02060200
KOSU 220527Z AUTO 07006KT 7SM FEW010 OVC015 21/20 A2976 RMK AO2 T02060200
KOSU 220501Z AUTO 07005KT 8SM BKN012 OVC019 21/20 A2977 RMK AO2 T02060200
KOSU 220453Z AUTO 05005KT 7SM BKN016 OVC021 21/20 A2977 RMK AO2 SLP073 T02060200 402330183
KOSU 220445Z AUTO 06004KT 7SM BKN016 OVC022 21/20 A2977 RMK AO2 T02060200
KOSU 220431Z AUTO 05006KT 8SM BKN014 BKN022 OVC026 21/20 A2977 RMK AO2 T02060200
KOSU 220405Z AUTO 05005KT 8SM SCT012 SCT018 OVC028 21/20 A2978 RMK AO2 T02060200
KOSU 220353Z AUTO 06005KT 8SM BKN011 OVC018 21/20 A2978 RMK AO2 SLP078 T02060200
KOSU 220253Z AUTO 08005KT 6SM BR BKN011 OVC090 20/20 A2978 RMK AO2 RAE02 SLP078 P0000 60008 T02000200 53003
KOSU 220218Z 07005KT 7SM SCT011 BKN085 OVC110 20/19 A2977 RMK AO2 RAE02 P0000 T02000194
KOSU 220153Z 08007KT 8SM -RA OVC011 21/20 A2977 RMK AO2 SLP076 P0001 T02060200
KOSU 220129Z 08006KT 9SM -RA BKN014 BKN030 OVC045 21/20 A2977 RMK AO2 P0001 T02060200
KOSU 220053Z 09008KT 5SM -RA BR FEW009 OVC026 21/20 A2977 RMK AO2 SLP076 P0007 T02060200
KOSU 220031Z 08008KT 8SM -RA FEW007 BKN026 OVC060 21/20 A2977 RMK AO2 P0005 T02060200
KOSU 220009Z 07011KT 4SM RA BR SCT024 SCT038 OVC060 21/20 A2977 RMK AO2 P0003 T02060200
KOSU 212353Z 09009KT 3SM RA BR FEW006 BKN027 OVC036 20/19 A2977 RMK AO2 SLP076 P0037 60200 T02000194 10228 20200 58002